createdAt,value
2022-10-06T00:00:56.944Z,67.14
2022-10-06T00:01:57.133Z,67.03
2022-10-06T00:02:57.350Z,67.14
2022-10-06T00:03:57.473Z,67.03
2022-10-06T00:04:57.635Z,67.34
2022-10-06T00:05:57.874Z,67.54
2022-10-06T00:06:57.994Z,67.47
2022-10-06T00:07:58.196Z,67.57
2022-10-06T00:08:58.354Z,67.57
2022-10-06T00:09:58.514Z,67.47
2022-10-06T00:10:58.696Z,67.68
2022-10-06T00:11:58.854Z,67.77
2022-10-06T00:12:59.013Z,67.88
2022-10-06T00:13:59.204Z,67.88
2022-10-06T00:14:59.376Z,67.77
2022-10-06T00:15:59.589Z,67.88
2022-10-06T00:16:59.694Z,67.77
2022-10-06T00:17:59.885Z,67.77
2022-10-06T00:19:00.044Z,67.88
2022-10-06T00:20:00.245Z,67.88
2022-10-06T00:21:00.415Z,67.88
2022-10-06T00:22:00.574Z,67.77
2022-10-06T00:23:00.737Z,67.77
2022-10-06T00:24:00.897Z,67.88
2022-10-06T00:25:01.054Z,67.88
2022-10-06T00:26:01.264Z,67.77
2022-10-06T00:27:01.426Z,67.97
2022-10-06T00:28:01.650Z,67.97
2022-10-06T00:29:01.773Z,68.18
2022-10-06T00:30:01.935Z,68.28
2022-10-06T00:31:02.186Z,68.48
2022-10-06T00:32:02.288Z,68.18
2022-10-06T00:33:02.447Z,68.28
2022-10-06T00:34:02.649Z,68.28
2022-10-06T00:35:02.813Z,68.24
2022-10-06T00:36:02.988Z,68.15
2022-10-06T00:37:03.228Z,68.04
2022-10-06T00:38:03.323Z,68.04
2022-10-06T00:39:03.476Z,67.84
2022-10-06T00:40:03.667Z,67.74
2022-10-06T00:41:03.847Z,67.91
2022-10-06T00:42:04.005Z,67.71
2022-10-06T00:43:04.165Z,67.61
2022-10-06T00:44:04.355Z,67.51
2022-10-06T00:45:04.517Z,67.41
2022-10-06T00:46:04.754Z,67.27
2022-10-06T00:47:04.836Z,67.07
2022-10-06T00:48:05.036Z,67.18
2022-10-06T00:49:05.187Z,67.07
2022-10-06T00:50:05.395Z,67.18
2022-10-06T00:51:05.566Z,67.07
2022-10-06T00:52:05.746Z,66.97
2022-10-06T00:53:05.905Z,66.87
2022-10-06T00:54:06.096Z,66.77
2022-10-06T00:55:06.256Z,66.77
2022-10-06T00:56:06.436Z,66.54
2022-10-06T00:57:06.650Z,66.64
2022-10-06T00:58:06.782Z,66.54
2022-10-06T00:59:06.925Z,66.34
2022-10-06T01:00:07.076Z,66.24
2022-10-06T01:01:07.301Z,66.14
2022-10-06T01:02:07.426Z,66.14
2022-10-06T01:03:07.713Z,66.03
2022-10-06T01:04:07.777Z,66.03
2022-10-06T01:05:07.926Z,65.73
2022-10-06T01:06:08.137Z,65.84
2022-10-06T01:07:08.287Z,65.84
2022-10-06T01:08:08.499Z,65.73
2022-10-06T01:09:08.660Z,65.70
2022-10-06T01:10:08.808Z,65.73
2022-10-06T01:11:09.017Z,65.73
2022-10-06T01:12:09.177Z,65.73
2022-10-06T01:13:09.328Z,65.73
2022-10-06T01:14:09.528Z,65.84
2022-10-06T01:15:09.678Z,65.94
2022-10-06T01:16:09.973Z,65.94
2022-10-06T01:17:10.058Z,66.03
2022-10-06T01:18:10.217Z,66.03
2022-10-06T01:19:10.377Z,66.14
2022-10-06T01:20:10.538Z,66.14
2022-10-06T01:21:10.708Z,66.03
2022-10-06T01:22:10.868Z,66.00
2022-10-06T01:23:11.021Z,65.91
2022-10-06T01:24:11.218Z,65.91
2022-10-06T01:25:11.379Z,65.91
2022-10-06T01:26:11.587Z,65.70
2022-10-06T01:27:11.738Z,65.70
2022-10-06T01:28:11.986Z,65.80
2022-10-06T01:29:12.119Z,65.60
2022-10-06T01:30:12.278Z,65.60
2022-10-06T01:31:12.497Z,65.41
2022-10-06T01:32:12.639Z,65.50
2022-10-06T01:33:12.795Z,65.41
2022-10-06T01:34:12.988Z,65.50
2022-10-06T01:35:13.148Z,65.50
2022-10-06T01:36:13.326Z,65.41
2022-10-06T01:37:13.481Z,65.30
2022-10-06T01:38:13.646Z,65.10
2022-10-06T01:39:13.800Z,65.30
2022-10-06T01:40:13.988Z,65.30
2022-10-06T01:41:14.168Z,65.41
2022-10-06T01:42:14.324Z,65.41
2022-10-06T01:43:14.479Z,65.50
2022-10-06T01:44:14.640Z,65.50
2022-10-06T01:45:14.810Z,65.50
2022-10-06T01:46:15.034Z,65.70
2022-10-06T01:47:15.139Z,65.94
2022-10-06T01:48:15.330Z,65.94
2022-10-06T01:49:15.488Z,66.03
2022-10-06T01:50:15.652Z,66.24
2022-10-06T01:51:15.820Z,66.34
2022-10-06T01:52:15.978Z,66.44
2022-10-06T01:53:16.170Z,66.64
2022-10-06T01:54:16.327Z,66.54
2022-10-06T01:55:16.527Z,66.54
2022-10-06T01:56:16.699Z,66.64
2022-10-06T01:57:16.849Z,66.74
2022-10-06T01:58:17.010Z,66.64
2022-10-06T01:59:17.191Z,66.74
2022-10-06T02:00:17.341Z,66.74
2022-10-06T02:01:17.570Z,66.64
2022-10-06T02:02:17.719Z,66.64
2022-10-06T02:03:17.891Z,66.84
2022-10-06T02:04:18.103Z,66.94
2022-10-06T02:05:18.228Z,66.74
2022-10-06T02:06:18.443Z,66.74
2022-10-06T02:07:18.559Z,66.77
2022-10-06T02:08:18.720Z,66.94
2022-10-06T02:09:18.877Z,67.04
2022-10-06T02:10:19.062Z,66.87
2022-10-06T02:11:19.221Z,66.87
2022-10-06T02:12:19.373Z,66.87
2022-10-06T02:13:19.570Z,67.18
2022-10-06T02:14:19.733Z,67.07
2022-10-06T02:15:19.890Z,67.18
2022-10-06T02:16:20.078Z,67.18
2022-10-06T02:17:20.249Z,67.27
2022-10-06T02:18:20.401Z,67.38
2022-10-06T02:19:20.592Z,67.38
2022-10-06T02:20:20.753Z,67.38
2022-10-06T02:21:20.912Z,67.58
2022-10-06T02:22:21.071Z,67.47
2022-10-06T02:23:21.262Z,67.68
2022-10-06T02:24:21.421Z,67.68
2022-10-06T02:25:21.589Z,67.78
2022-10-06T02:26:21.750Z,67.78
2022-10-06T02:27:21.911Z,67.98
2022-10-06T02:28:22.125Z,67.98
2022-10-06T02:29:22.231Z,67.91
2022-10-06T02:30:22.466Z,67.91
2022-10-06T02:31:22.620Z,68.21
2022-10-06T02:32:22.753Z,68.31
2022-10-06T02:33:22.911Z,68.11
2022-10-06T02:34:23.062Z,67.91
2022-10-06T02:35:23.263Z,68.01
2022-10-06T02:36:23.442Z,68.01
2022-10-06T02:37:23.604Z,67.81
2022-10-06T02:38:23.761Z,68.11
2022-10-06T02:39:23.951Z,68.01
2022-10-06T02:40:24.132Z,68.21
2022-10-06T02:41:24.281Z,68.51
2022-10-06T02:42:24.442Z,68.51
2022-10-06T02:43:24.639Z,68.31
2022-10-06T02:44:24.791Z,68.62
2022-10-06T02:45:25.012Z,68.62
2022-10-06T02:46:25.209Z,68.51
2022-10-06T02:47:25.342Z,68.51
2022-10-06T02:48:25.778Z,68.71
2022-10-06T02:49:25.691Z,68.62
2022-10-06T02:50:25.872Z,68.62
2022-10-06T02:51:26.033Z,68.62
2022-10-06T02:52:26.192Z,68.62
2022-10-06T02:53:26.354Z,68.41
2022-10-06T02:54:26.512Z,68.51
2022-10-06T02:55:26.703Z,68.62
2022-10-06T02:56:26.871Z,68.48
2022-10-06T02:57:27.032Z,68.28
2022-10-06T02:58:27.518Z,68.18
2022-10-06T02:59:27.408Z,68.38
2022-10-06T03:00:27.555Z,68.28
2022-10-06T03:01:27.764Z,68.38
2022-10-06T03:02:27.945Z,68.38
2022-10-06T03:03:28.052Z,68.08
2022-10-06T03:04:28.213Z,68.28
2022-10-06T03:05:28.433Z,68.08
2022-10-06T03:06:28.552Z,68.08
2022-10-06T03:07:28.763Z,67.94
2022-10-06T03:08:29.313Z,67.85
2022-10-06T03:09:29.102Z,67.85
2022-10-06T03:10:29.266Z,67.74
2022-10-06T03:11:29.423Z,67.55
2022-10-06T03:12:29.599Z,67.65
2022-10-06T03:13:29.775Z,67.44
2022-10-06T03:14:29.934Z,67.55
2022-10-06T03:15:30.142Z,67.55
2022-10-06T03:16:30.335Z,67.41
2022-10-06T03:17:30.473Z,67.31
2022-10-06T03:18:31.229Z,67.31
2022-10-06T03:19:30.813Z,67.11
2022-10-06T03:20:30.973Z,67.21
2022-10-06T03:21:31.134Z,67.01
2022-10-06T03:22:31.293Z,67.01
2022-10-06T03:23:31.509Z,66.91
2022-10-06T03:24:31.654Z,66.81
2022-10-06T03:25:31.855Z,66.81
2022-10-06T03:26:32.013Z,66.47
2022-10-06T03:27:32.195Z,66.58
2022-10-06T03:28:32.843Z,66.58
2022-10-06T03:29:32.524Z,66.58
2022-10-06T03:30:32.703Z,66.88
2022-10-06T03:31:32.871Z,67.58
2022-10-06T03:32:33.025Z,67.78
2022-10-06T03:33:33.224Z,68.08
2022-10-06T03:34:33.382Z,68.79
2022-10-06T03:35:33.575Z,69.12
2022-10-06T03:36:33.744Z,69.52
2022-10-06T03:37:33.905Z,69.82
2022-10-06T03:38:34.059Z,69.72
2022-10-06T03:39:34.230Z,70.23
2022-10-06T03:40:34.396Z,70.32
2022-10-06T03:41:34.554Z,70.32
2022-10-06T03:42:34.715Z,70.43
2022-10-06T03:43:34.904Z,70.53
2022-10-06T03:44:35.123Z,70.53
2022-10-06T03:45:35.253Z,70.43
2022-10-06T03:46:35.479Z,70.32
2022-10-06T03:47:35.586Z,69.92
2022-10-06T03:48:35.746Z,70.03
2022-10-06T03:49:35.905Z,70.03
2022-10-06T03:50:36.094Z,69.82
2022-10-06T03:51:36.255Z,69.62
2022-10-06T03:52:36.416Z,69.62
2022-10-06T03:53:36.605Z,69.52
2022-10-06T03:54:36.766Z,69.62
2022-10-06T03:55:36.935Z,69.09
2022-10-06T03:56:37.126Z,69.22
2022-10-06T03:57:37.288Z,68.99
2022-10-06T03:58:37.454Z,69.09
2022-10-06T03:59:37.606Z,68.59
2022-10-06T04:00:37.875Z,68.49
2022-10-06T04:01:38.044Z,68.38
2022-10-06T04:02:38.107Z,68.08
2022-10-06T04:03:38.306Z,68.08
2022-10-06T04:04:38.469Z,67.48
2022-10-06T04:05:38.677Z,67.48
2022-10-06T04:06:38.839Z,67.28
2022-10-06T04:07:38.997Z,67.28
2022-10-06T04:08:39.157Z,67.28
2022-10-06T04:09:39.317Z,67.38
2022-10-06T04:10:39.487Z,67.38
2022-10-06T04:11:39.647Z,67.08
2022-10-06T04:12:39.807Z,66.98
2022-10-06T04:13:39.978Z,66.58
2022-10-06T04:14:40.139Z,65.97
2022-10-06T04:15:40.317Z,65.70
2022-10-06T04:16:40.566Z,65.70
2022-10-06T04:17:40.659Z,65.10
2022-10-06T04:18:40.827Z,65.20
2022-10-06T04:19:40.989Z,65.20
2022-10-06T04:20:41.168Z,64.60
2022-10-06T04:21:41.346Z,64.60
2022-10-06T04:22:41.499Z,65.00
2022-10-06T04:23:41.687Z,64.80
2022-10-06T04:24:41.879Z,64.80
2022-10-06T04:25:42.087Z,64.70
2022-10-06T04:26:42.249Z,64.10
2022-10-06T04:27:42.407Z,64.00
2022-10-06T04:28:42.584Z,63.79
2022-10-06T04:29:42.728Z,63.29
2022-10-06T04:30:42.917Z,63.29
2022-10-06T04:31:43.173Z,63.59
2022-10-06T04:32:43.249Z,63.49
2022-10-06T04:33:43.447Z,62.89
2022-10-06T04:34:43.596Z,62.89
2022-10-06T04:35:43.818Z,62.39
2022-10-06T04:36:43.950Z,61.88
2022-10-06T04:37:44.139Z,62.29
2022-10-06T04:38:44.298Z,62.69
2022-10-06T04:39:44.489Z,62.59
2022-10-06T04:40:44.688Z,62.39
2022-10-06T04:41:44.848Z,61.61
2022-10-06T04:42:45.007Z,62.12
2022-10-06T04:43:45.199Z,62.22
2022-10-06T04:44:45.389Z,62.42
2022-10-06T04:45:45.692Z,62.42
2022-10-06T04:46:45.991Z,62.62
2022-10-06T04:47:45.936Z,62.42
2022-10-06T04:48:46.089Z,62.52
2022-10-06T04:49:46.278Z,62.32
2022-10-06T04:50:46.482Z,61.91
2022-10-06T04:51:46.639Z,62.42
2022-10-06T04:52:46.792Z,62.32
2022-10-06T04:53:46.979Z,62.12
2022-10-06T04:54:47.150Z,62.32
2022-10-06T04:55:47.357Z,62.02
2022-10-06T04:56:47.509Z,61.91
2022-10-06T04:57:47.669Z,62.22
2022-10-06T04:58:47.829Z,61.94
2022-10-06T04:59:48.001Z,61.74
2022-10-06T05:00:48.228Z,62.35
2022-10-06T05:01:48.377Z,61.82
2022-10-06T05:02:48.520Z,61.74
2022-10-06T05:03:48.701Z,61.44
2022-10-06T05:04:48.870Z,61.54
2022-10-06T05:05:49.062Z,61.65
2022-10-06T05:06:49.200Z,61.74
2022-10-06T05:07:49.379Z,61.14
2022-10-06T05:08:49.566Z,61.24
2022-10-06T05:09:49.740Z,61.44
2022-10-06T05:10:49.930Z,61.44
2022-10-06T05:11:50.080Z,61.44
2022-10-06T05:12:50.240Z,61.34
2022-10-06T05:13:50.420Z,61.24
2022-10-06T05:14:50.601Z,61.54
2022-10-06T05:15:50.803Z,61.34
2022-10-06T05:16:51.010Z,61.54
2022-10-06T05:17:51.121Z,61.44
2022-10-06T05:18:51.307Z,60.94
2022-10-06T05:19:51.500Z,61.04
2022-10-06T05:20:51.672Z,60.53
2022-10-06T05:21:51.821Z,60.74
2022-10-06T05:22:51.972Z,61.14
2022-10-06T05:23:52.149Z,60.74
2022-10-06T05:24:52.300Z,60.64
2022-10-06T05:25:52.508Z,60.44
2022-10-06T05:26:52.652Z,60.33
2022-10-06T05:27:52.832Z,60.53
2022-10-06T05:28:53.037Z,60.13
2022-10-06T05:29:53.191Z,60.03
2022-10-06T05:30:53.391Z,60.24
2022-10-06T05:31:53.575Z,59.63
2022-10-06T05:32:53.704Z,60.24
2022-10-06T05:33:53.882Z,60.13
2022-10-06T05:34:54.081Z,59.74
2022-10-06T05:35:54.242Z,59.43
2022-10-06T05:36:54.429Z,60.13
2022-10-06T05:37:54.601Z,60.03
2022-10-06T05:38:54.802Z,59.83
2022-10-06T05:39:54.971Z,59.94
2022-10-06T05:40:55.160Z,59.94
2022-10-06T05:41:55.321Z,59.74
2022-10-06T05:42:55.462Z,59.74
2022-10-06T05:43:55.644Z,59.53
2022-10-06T05:44:55.825Z,59.83
2022-10-06T05:45:56.082Z,59.53
2022-10-06T05:46:56.162Z,59.53
2022-10-06T05:47:56.342Z,59.74
2022-10-06T05:48:56.491Z,59.94
2022-10-06T05:49:56.676Z,59.63
2022-10-06T05:50:56.872Z,59.56
2022-10-06T05:51:57.012Z,59.66
2022-10-06T05:52:57.192Z,59.66
2022-10-06T05:53:57.365Z,60.06
2022-10-06T05:54:57.542Z,59.86
2022-10-06T05:55:57.756Z,60.06
2022-10-06T05:56:57.892Z,60.09
2022-10-06T05:57:58.082Z,60.29
2022-10-06T05:58:58.238Z,60.19
2022-10-06T05:59:58.423Z,60.29
2022-10-06T06:00:58.606Z,60.19
2022-10-06T06:01:58.800Z,60.29
2022-10-06T06:02:58.960Z,60.49
2022-10-06T06:03:59.084Z,60.49
2022-10-06T06:04:59.244Z,61.03
2022-10-06T06:05:59.451Z,60.72
2022-10-06T06:06:59.613Z,60.83
2022-10-06T06:07:59.793Z,61.03
2022-10-06T06:08:59.975Z,61.03
2022-10-06T06:10:00.154Z,61.43
2022-10-06T06:11:00.343Z,61.43
2022-10-06T06:12:00.564Z,61.33
2022-10-06T06:13:00.684Z,61.43
2022-10-06T06:14:00.864Z,61.53
2022-10-06T06:15:01.043Z,61.73
2022-10-06T06:16:01.243Z,61.53
2022-10-06T06:17:01.464Z,61.73
2022-10-06T06:18:01.633Z,61.63
2022-10-06T06:19:01.777Z,61.53
2022-10-06T06:20:01.956Z,61.53
2022-10-06T06:21:02.153Z,61.83
2022-10-06T06:22:02.324Z,62.13
2022-10-06T06:23:02.494Z,62.24
2022-10-06T06:24:02.674Z,62.24
2022-10-06T06:25:02.854Z,62.44
2022-10-06T06:26:03.044Z,62.24
2022-10-06T06:27:03.196Z,62.04
2022-10-06T06:28:03.414Z,62.04
2022-10-06T06:29:03.563Z,62.54
2022-10-06T06:30:03.735Z,62.54
2022-10-06T06:31:03.988Z,62.34
2022-10-06T06:32:04.091Z,62.64
2022-10-06T06:33:04.273Z,62.54
2022-10-06T06:34:04.444Z,62.44
2022-10-06T06:35:04.624Z,62.44
2022-10-06T06:36:04.821Z,62.41
2022-10-06T06:37:08.470Z,62.41
2022-10-06T06:38:05.144Z,62.41
2022-10-06T06:39:05.325Z,62.38
2022-10-06T06:40:05.509Z,62.27
2022-10-06T06:41:05.715Z,62.07
2022-10-06T06:42:05.855Z,61.94
2022-10-06T06:43:06.034Z,61.94
2022-10-06T06:44:06.214Z,61.54
2022-10-06T06:45:06.414Z,61.34
2022-10-06T06:46:06.598Z,61.41
2022-10-06T06:47:06.734Z,61.34
2022-10-06T06:48:06.911Z,61.34
2022-10-06T06:49:07.096Z,61.14
2022-10-06T06:50:07.285Z,61.24
2022-10-06T06:51:07.433Z,61.54
2022-10-06T06:52:07.613Z,61.54
2022-10-06T06:53:08.190Z,61.44
2022-10-06T06:54:07.995Z,61.54
2022-10-06T06:55:08.168Z,61.44
2022-10-06T06:56:08.306Z,61.34
2022-10-06T06:57:08.488Z,61.34
2022-10-06T06:58:08.666Z,61.34
2022-10-06T06:59:08.856Z,61.14
2022-10-06T07:00:09.046Z,61.24
2022-10-06T07:01:09.255Z,61.34
2022-10-06T07:02:09.414Z,61.54
2022-10-06T07:03:09.557Z,61.44
2022-10-06T07:04:09.745Z,61.34
2022-10-06T07:05:09.927Z,61.24
2022-10-06T07:06:10.097Z,61.44
2022-10-06T07:07:10.275Z,61.54
2022-10-06T07:08:10.455Z,61.41
2022-10-06T07:09:10.643Z,61.11
2022-10-06T07:10:10.826Z,60.91
2022-10-06T07:11:11.004Z,60.71
2022-10-06T07:12:11.175Z,60.71
2022-10-06T07:13:11.581Z,60.71
2022-10-06T07:14:11.526Z,60.61
2022-10-06T07:15:12.733Z,60.71
2022-10-06T07:16:11.938Z,60.71
2022-10-06T07:17:12.096Z,60.91
2022-10-06T07:18:12.256Z,61.01
2022-10-06T07:19:12.444Z,60.71
2022-10-06T07:20:12.638Z,60.91
2022-10-06T07:21:12.806Z,60.81
2022-10-06T07:22:12.995Z,60.81
2022-10-06T07:23:13.176Z,60.71
2022-10-06T07:24:13.350Z,60.71
2022-10-06T07:25:13.557Z,60.58
2022-10-06T07:26:13.717Z,60.38
2022-10-06T07:27:13.898Z,59.65
2022-10-06T07:28:14.163Z,59.12
2022-10-06T07:29:14.258Z,59.22
2022-10-06T07:30:14.455Z,59.12
2022-10-06T07:31:14.633Z,59.01
2022-10-06T07:32:14.787Z,58.51
2022-10-06T07:33:14.966Z,58.72
2022-10-06T07:34:15.147Z,58.62
2022-10-06T07:35:15.357Z,58.01
2022-10-06T07:36:15.496Z,57.71
2022-10-06T07:37:15.667Z,57.98
2022-10-06T07:38:15.848Z,56.85
2022-10-06T07:39:16.030Z,56.26
2022-10-06T07:40:16.228Z,56.33
2022-10-06T07:41:20.485Z,55.52
2022-10-06T07:42:16.568Z,54.90
2022-10-06T07:43:16.759Z,54.50
2022-10-06T07:44:16.946Z,53.97
2022-10-06T07:45:17.142Z,54.17
2022-10-06T07:46:17.361Z,53.05
2022-10-06T07:47:17.497Z,52.74
2022-10-06T07:48:17.680Z,51.82
2022-10-06T07:49:17.858Z,51.72
2022-10-06T07:50:18.071Z,52.14
2022-10-06T07:51:18.219Z,52.84
2022-10-06T07:52:18.359Z,52.04
2022-10-06T07:53:18.519Z,51.67
2022-10-06T07:54:18.699Z,52.07
2022-10-06T07:55:18.900Z,51.46
2022-10-06T07:56:19.079Z,51.17
2022-10-06T07:57:19.239Z,50.99
2022-10-06T07:58:19.428Z,50.99
2022-10-06T07:59:19.613Z,51.37
2022-10-06T08:00:19.839Z,50.44
2022-10-06T08:01:20.030Z,49.32
2022-10-06T08:02:20.171Z,49.62
2022-10-06T08:03:20.346Z,49.07
2022-10-06T08:04:20.480Z,47.25
2022-10-06T08:05:20.650Z,46.28
2022-10-06T08:06:20.800Z,45.24
2022-10-06T08:07:20.983Z,43.60
2022-10-06T08:08:21.149Z,42.25
2022-10-06T08:09:21.320Z,41.09
2022-10-06T08:10:21.529Z,40.25
2022-10-06T08:11:21.733Z,38.62
2022-10-06T08:12:21.860Z,37.60
2022-10-06T08:13:22.040Z,36.37
2022-10-06T08:14:22.230Z,36.75
2022-10-06T08:15:22.431Z,35.63
2022-10-06T08:16:22.692Z,34.92
2022-10-06T08:17:22.791Z,34.72
2022-10-06T08:18:44.367Z,34.53
2022-10-06T08:19:24.141Z,33.62
2022-10-06T08:20:23.316Z,34.01
2022-10-06T08:21:23.492Z,33.98
2022-10-06T08:22:23.672Z,33.58
2022-10-06T08:23:23.854Z,32.28
2022-10-06T08:24:24.033Z,32.67
2022-10-06T08:25:24.222Z,32.48
2022-10-06T08:26:24.364Z,32.18
2022-10-06T08:27:24.566Z,32.18
2022-10-06T08:28:24.767Z,32.45
2022-10-06T08:29:24.888Z,31.35
2022-10-06T08:30:25.070Z,31.04
2022-10-06T08:31:25.331Z,30.43
2022-10-06T08:32:25.427Z,30.02
2022-10-06T08:33:25.624Z,29.62
2022-10-06T08:34:25.774Z,30.11
2022-10-06T08:35:25.967Z,29.50
2022-10-06T08:36:30.913Z,28.61
2022-10-06T08:37:27.455Z,28.79
2022-10-06T08:38:26.448Z,28.49
2022-10-06T08:39:26.629Z,28.26
2022-10-06T08:40:26.827Z,27.27
2022-10-06T08:41:27.005Z,27.95
2022-10-06T08:42:27.176Z,28.15
2022-10-06T08:43:27.386Z,27.28
2022-10-06T08:44:27.527Z,27.70
2022-10-06T08:45:27.736Z,28.01
2022-10-06T08:46:27.869Z,28.31
2022-10-06T08:47:28.058Z,28.51
2022-10-06T08:48:28.247Z,28.63
2022-10-06T08:49:28.417Z,29.62
2022-10-06T08:50:28.610Z,28.82
2022-10-06T08:51:28.789Z,28.63
2022-10-06T08:52:28.968Z,28.13
2022-10-06T08:53:29.141Z,28.92
2022-10-06T08:54:29.330Z,28.59
2022-10-06T08:55:29.510Z,28.00
2022-10-06T08:56:29.683Z,27.49
2022-10-06T08:57:29.896Z,27.58
2022-10-06T08:58:30.023Z,27.16
2022-10-06T08:59:30.190Z,26.37
2022-10-06T09:00:30.372Z,26.35
2022-10-06T09:01:30.631Z,26.13
2022-10-06T09:02:30.779Z,25.52
2022-10-06T09:03:30.914Z,25.73
2022-10-06T09:04:31.081Z,26.03
2022-10-06T09:05:31.251Z,27.06
2022-10-06T09:06:31.404Z,28.20
2022-10-06T09:07:31.584Z,29.06
2022-10-06T09:08:31.753Z,30.38
2022-10-06T09:09:31.943Z,30.76
2022-10-06T09:10:32.123Z,30.02
2022-10-06T09:11:32.312Z,29.86
2022-10-06T09:12:32.492Z,29.97
2022-10-06T09:13:32.663Z,29.86
2022-10-06T09:14:32.836Z,29.14
2022-10-06T09:15:33.044Z,29.25
2022-10-06T09:16:33.229Z,29.55
2022-10-06T09:17:33.353Z,29.24
2022-10-06T09:18:49.824Z,29.27
2022-10-06T09:19:34.714Z,30.41
2022-10-06T09:20:33.895Z,31.56
2022-10-06T09:21:34.084Z,32.78
2022-10-06T09:22:34.257Z,34.01
2022-10-06T09:23:34.436Z,34.56
2022-10-06T09:24:34.598Z,35.69
2022-10-06T09:25:34.806Z,36.60
2022-10-06T09:26:34.946Z,37.32
2022-10-06T09:27:35.125Z,38.04
2022-10-06T09:28:35.380Z,38.87
2022-10-06T09:29:35.476Z,39.50
2022-10-06T09:30:35.666Z,38.97
2022-10-06T09:31:35.928Z,38.85
2022-10-06T09:32:36.016Z,38.65
2022-10-06T09:33:36.197Z,38.89
2022-10-06T09:34:36.367Z,38.95
2022-10-06T09:35:36.586Z,38.20
2022-10-06T09:36:36.741Z,37.57
2022-10-06T09:37:36.948Z,38.07
2022-10-06T09:38:37.088Z,37.67
2022-10-06T09:39:37.271Z,37.69
2022-10-06T09:40:37.442Z,37.69
2022-10-06T09:41:37.615Z,37.29
2022-10-06T09:42:37.788Z,37.59
2022-10-06T09:43:37.958Z,37.79
2022-10-06T09:44:38.109Z,37.49
2022-10-06T09:45:38.318Z,37.70
2022-10-06T09:46:38.478Z,37.82
2022-10-06T09:47:38.690Z,38.73
2022-10-06T09:48:38.900Z,39.54
2022-10-06T09:49:39.019Z,39.37
2022-10-06T09:50:39.218Z,39.59
2022-10-06T09:51:39.359Z,40.20
2022-10-06T09:52:39.552Z,40.32
2022-10-06T09:53:39.729Z,40.82
2022-10-06T09:54:39.910Z,41.93
2022-10-06T09:55:40.119Z,42.15
2022-10-06T09:56:40.260Z,40.38
2022-10-06T09:57:40.441Z,41.19
2022-10-06T09:58:40.620Z,41.50
2022-10-06T09:59:40.800Z,41.22
2022-10-06T10:00:41.022Z,41.93
2022-10-06T10:01:41.170Z,42.13
2022-10-06T10:02:41.406Z,42.55
2022-10-06T10:03:44.547Z,43.25
2022-10-06T10:04:42.701Z,43.48
2022-10-06T10:05:41.874Z,42.87
2022-10-06T10:06:42.034Z,43.59
2022-10-06T10:07:42.211Z,43.09
2022-10-06T10:08:42.392Z,43.19
2022-10-06T10:09:42.612Z,43.40
2022-10-06T10:10:42.752Z,44.09
2022-10-06T10:11:42.932Z,44.51
2022-10-06T10:12:43.122Z,44.21
2022-10-06T10:13:43.307Z,44.82
2022-10-06T10:14:43.501Z,45.51
2022-10-06T10:15:43.733Z,44.12
2022-10-06T10:16:43.811Z,45.01
2022-10-06T10:17:43.994Z,45.21
2022-10-06T10:18:44.180Z,44.21
2022-10-06T10:19:44.372Z,42.91
2022-10-06T10:20:44.542Z,44.01
2022-10-06T10:21:44.692Z,43.62
2022-10-06T10:22:44.862Z,44.12
2022-10-06T10:23:45.044Z,44.62
2022-10-06T10:24:45.244Z,45.01
2022-10-06T10:25:45.386Z,43.71
2022-10-06T10:26:45.571Z,44.42
2022-10-06T10:27:45.759Z,44.32
2022-10-06T10:28:45.933Z,44.32
2022-10-06T10:29:46.123Z,44.21
2022-10-06T10:30:46.277Z,44.01
2022-10-06T10:31:46.494Z,43.82
2022-10-06T10:32:46.643Z,44.32
2022-10-06T10:33:59.165Z,43.82
2022-10-06T10:34:48.087Z,44.21
2022-10-06T10:35:47.172Z,45.62
2022-10-06T10:36:47.354Z,44.71
2022-10-06T10:37:47.536Z,44.92
2022-10-06T10:38:47.733Z,44.92
2022-10-06T10:39:47.913Z,44.59
2022-10-06T10:40:48.063Z,44.49
2022-10-06T10:41:48.244Z,44.49
2022-10-06T10:42:48.435Z,43.59
2022-10-06T10:43:48.610Z,43.29
2022-10-06T10:44:48.825Z,44.29
2022-10-06T10:45:48.955Z,43.99
2022-10-06T10:46:49.198Z,43.79
2022-10-06T10:47:49.304Z,43.49
2022-10-06T10:48:49.526Z,43.57
2022-10-06T10:49:49.664Z,42.87
2022-10-06T10:50:49.835Z,43.18
2022-10-06T10:51:49.984Z,43.65
2022-10-06T10:52:50.170Z,43.35
2022-10-06T10:53:50.346Z,43.35
2022-10-06T10:54:50.538Z,44.33
2022-10-06T10:55:50.690Z,43.53
2022-10-06T10:56:50.873Z,42.54
2022-10-06T10:57:51.067Z,42.03
2022-10-06T10:58:51.216Z,43.31
2022-10-06T10:59:51.386Z,41.91
2022-10-06T11:00:51.580Z,42.71
2022-10-06T11:01:51.789Z,41.82
2022-10-06T11:02:51.906Z,41.82
2022-10-06T11:03:52.087Z,41.82
2022-10-06T11:04:52.286Z,40.92
2022-10-06T11:05:52.429Z,41.11
2022-10-06T11:06:52.625Z,40.32
2022-10-06T11:07:52.766Z,40.01
2022-10-06T11:08:52.967Z,40.94
2022-10-06T11:09:53.127Z,40.94
2022-10-06T11:10:53.294Z,41.03
2022-10-06T11:11:53.438Z,41.44
2022-10-06T11:12:53.627Z,42.33
2022-10-06T11:13:53.808Z,42.13
2022-10-06T11:14:54.019Z,41.83
2022-10-06T11:15:54.226Z,42.33
2022-10-06T11:16:54.358Z,41.83
2022-10-06T11:17:54.519Z,42.13
2022-10-06T11:18:54.719Z,41.03
2022-10-06T11:19:54.907Z,41.03
2022-10-06T11:20:55.068Z,41.33
2022-10-06T11:21:55.212Z,41.83
2022-10-06T11:22:55.388Z,41.24
2022-10-06T11:23:55.579Z,41.16
2022-10-06T11:24:56.161Z,42.46
2022-10-06T11:25:55.919Z,42.55
2022-10-06T11:26:56.141Z,42.25
2022-10-06T11:27:56.447Z,41.55
2022-10-06T11:28:56.459Z,41.46
2022-10-06T11:29:56.944Z,41.55
2022-10-06T11:30:56.821Z,40.86
2022-10-06T11:31:57.083Z,41.16
2022-10-06T11:32:57.180Z,41.75
2022-10-06T11:33:57.360Z,42.15
2022-10-06T11:34:57.559Z,42.15
2022-10-06T11:35:57.730Z,41.25
2022-10-06T11:36:57.899Z,41.46
2022-10-06T11:37:58.080Z,41.74
2022-10-06T11:38:58.260Z,40.95
2022-10-06T11:39:58.716Z,40.75
2022-10-06T11:40:58.646Z,40.95
2022-10-06T11:41:58.803Z,40.95
2022-10-06T11:42:58.970Z,41.66
2022-10-06T11:43:59.165Z,41.85
2022-10-06T11:44:59.745Z,41.96
2022-10-06T11:45:59.562Z,42.05
2022-10-06T11:46:59.680Z,42.15
2022-10-06T11:47:59.861Z,41.75
2022-10-06T11:49:00.041Z,42.13
2022-10-06T11:50:00.245Z,41.63
2022-10-06T11:51:00.391Z,41.44
2022-10-06T11:52:04.521Z,41.44
2022-10-06T11:53:00.741Z,41.24
2022-10-06T11:54:00.927Z,40.94
2022-10-06T11:55:01.398Z,41.03
2022-10-06T11:56:01.286Z,41.33
2022-10-06T11:57:01.462Z,41.03
2022-10-06T11:58:05.495Z,40.94
2022-10-06T11:59:02.802Z,41.44
2022-10-06T12:00:02.002Z,40.42
2022-10-06T12:01:02.198Z,40.72
2022-10-06T12:02:02.445Z,41.02
2022-10-06T12:03:02.602Z,40.42
2022-10-06T12:04:02.703Z,40.52
2022-10-06T12:05:02.870Z,39.92
2022-10-06T12:06:03.002Z,39.92
2022-10-06T12:07:03.184Z,39.54
2022-10-06T12:08:03.363Z,39.64
2022-10-06T12:09:03.542Z,39.24
2022-10-06T12:10:03.752Z,39.64
2022-10-06T12:11:03.893Z,40.04
2022-10-06T12:12:04.073Z,39.43
2022-10-06T12:13:11.201Z,39.94
2022-10-06T12:15:37.953Z,39.43
2022-10-06T12:17:05.154Z,38.34
2022-10-06T12:17:11.740Z,39.04
2022-10-06T12:18:06.134Z,38.74
2022-10-06T12:19:05.322Z,39.64
2022-10-06T12:20:05.514Z,38.66
2022-10-06T12:21:05.694Z,39.36
2022-10-06T12:22:05.885Z,39.46
2022-10-06T12:23:06.034Z,39.26
2022-10-06T12:24:06.257Z,39.46
2022-10-06T12:25:06.413Z,39.26
2022-10-06T12:26:06.590Z,39.06
2022-10-06T12:27:06.764Z,39.15
2022-10-06T12:28:07.006Z,39.65
2022-10-06T12:29:07.135Z,39.65
2022-10-06T12:30:07.334Z,39.95
2022-10-06T12:31:07.600Z,39.34
2022-10-06T12:32:07.684Z,39.94
2022-10-06T12:33:07.865Z,39.94
2022-10-06T12:34:08.046Z,40.14
2022-10-06T12:35:08.248Z,40.23
2022-10-06T12:36:08.415Z,39.84
2022-10-06T12:37:08.596Z,39.43
2022-10-06T12:38:08.776Z,39.94
2022-10-06T12:39:08.956Z,39.43
2022-10-06T12:40:09.151Z,39.43
2022-10-06T12:41:09.298Z,39.04
2022-10-06T12:42:09.488Z,38.74
2022-10-06T12:43:09.642Z,38.54
2022-10-06T12:44:09.823Z,38.54
2022-10-06T12:45:10.018Z,39.54
2022-10-06T12:46:10.282Z,38.84
2022-10-06T12:47:10.386Z,39.24
2022-10-06T12:48:10.557Z,38.64
2022-10-06T12:49:10.747Z,37.84
2022-10-06T12:50:10.995Z,38.74
2022-10-06T12:51:11.106Z,39.04
2022-10-06T12:52:11.285Z,38.72
2022-10-06T12:53:11.483Z,38.14
2022-10-06T12:54:11.628Z,38.04
2022-10-06T12:55:11.835Z,38.14
2022-10-06T12:56:11.975Z,38.24